createdAt,value
2023-04-24T00:00:29.125Z,1.95
2023-04-24T00:02:58.779Z,1.83
2023-04-24T00:05:25.995Z,4.40
2023-04-24T00:07:56.308Z,2.75
2023-04-24T00:10:23.068Z,1.45
2023-04-24T00:12:49.792Z,2.13
2023-04-24T00:15:18.916Z,1.50
2023-04-24T00:17:48.502Z,1.50
2023-04-24T00:20:17.825Z,2.22
2023-04-24T00:22:44.699Z,2.88
2023-04-24T00:25:11.346Z,2.25
2023-04-24T00:27:38.291Z,3.33
2023-04-24T00:30:06.111Z,2.97
2023-04-24T00:32:32.778Z,3.25
2023-04-24T00:35:01.812Z,2.33
2023-04-24T00:37:30.988Z,1.98
2023-04-24T00:39:57.678Z,2.22
2023-04-24T00:42:24.823Z,1.67
2023-04-24T00:44:52.381Z,2.95
2023-04-24T00:47:20.854Z,2.53
2023-04-24T00:49:49.783Z,2.53
2023-04-24T00:52:18.581Z,2.42
2023-04-24T00:54:48.594Z,1.92
2023-04-24T00:57:24.625Z,4.55
2023-04-24T00:59:54.760Z,2.75
2023-04-24T01:02:25.775Z,3.33
2023-04-24T01:04:54.803Z,8.45
2023-04-24T01:07:26.056Z,2.28
2023-04-24T01:09:53.146Z,2.30
2023-04-24T01:12:20.473Z,3.88
2023-04-24T01:14:47.477Z,3.53
2023-04-24T01:17:16.655Z,5.30
2023-04-24T01:19:45.868Z,2.45
2023-04-24T01:22:18.056Z,2.92
2023-04-24T01:24:44.983Z,3.22
2023-04-24T01:27:14.900Z,4.03
2023-04-24T01:29:41.910Z,5.35
2023-04-24T01:32:08.759Z,5.63
2023-04-24T01:34:37.885Z,6.55
2023-04-24T01:37:05.950Z,6.63
2023-04-24T01:39:35.397Z,5.53
2023-04-24T01:42:03.322Z,6.30
2023-04-24T01:44:30.651Z,6.03
2023-04-24T01:46:57.459Z,7.47
2023-04-24T01:49:26.935Z,8.75
2023-04-24T01:51:53.852Z,8.13
2023-04-24T01:54:22.653Z,6.95
2023-04-24T01:56:49.756Z,6.95
2023-04-24T01:59:20.555Z,11.60
2023-04-24T02:01:49.533Z,8.38
2023-04-24T02:04:16.479Z,8.73
2023-04-24T02:06:45.465Z,7.10
2023-04-24T02:09:12.242Z,8.93
2023-04-24T02:11:43.856Z,9.05
2023-04-24T02:14:10.779Z,9.35
2023-04-24T02:16:39.720Z,8.13
2023-04-24T02:19:06.757Z,9.55
2023-04-24T02:21:34.239Z,9.45
2023-04-24T02:24:03.260Z,11.80
2023-04-24T02:26:32.715Z,8.65
2023-04-24T02:29:04.017Z,11.20
2023-04-24T02:31:30.868Z,11.02
2023-04-24T02:33:57.492Z,11.18
2023-04-24T02:36:24.146Z,8.57
2023-04-24T02:38:50.772Z,11.40
2023-04-24T02:41:19.602Z,9.57
2023-04-24T02:43:46.404Z,10.77
2023-04-24T02:46:13.353Z,11.18
2023-04-24T02:48:40.076Z,10.65
2023-04-24T02:51:07.591Z,9.65
2023-04-24T02:53:34.285Z,8.88
2023-04-24T02:56:00.924Z,10.23
2023-04-24T02:58:27.587Z,9.85
2023-04-24T03:00:56.714Z,10.77
2023-04-24T03:03:26.297Z,10.20
2023-04-24T03:05:56.394Z,10.10
2023-04-24T03:08:23.077Z,10.40
2023-04-24T03:10:52.128Z,11.63
2023-04-24T03:13:18.794Z,12.50
2023-04-24T03:15:46.028Z,12.93
2023-04-24T03:18:15.095Z,11.20
2023-04-24T03:20:41.834Z,11.15
2023-04-24T03:23:12.969Z,12.07
2023-04-24T03:25:43.702Z,11.23
2023-04-24T03:28:12.959Z,11.27
2023-04-24T03:30:39.600Z,13.40
2023-04-24T03:33:06.500Z,11.88
2023-04-24T03:35:33.309Z,11.32
2023-04-24T03:38:02.216Z,12.27
2023-04-24T03:40:31.113Z,10.05
2023-04-24T03:43:00.334Z,10.60
2023-04-24T03:45:27.015Z,12.50
2023-04-24T03:47:56.086Z,10.95
2023-04-24T03:50:23.094Z,12.70
2023-04-24T03:52:52.217Z,11.23
2023-04-24T03:55:19.033Z,9.50
2023-04-24T03:57:45.902Z,9.73
2023-04-24T04:00:13.173Z,11.75
2023-04-24T04:02:39.898Z,13.23
2023-04-24T04:05:07.022Z,9.63
2023-04-24T04:07:33.757Z,13.40
2023-04-24T04:10:00.582Z,9.75
2023-04-24T04:12:27.250Z,10.20
2023-04-24T04:14:53.899Z,10.52
2023-04-24T04:17:20.533Z,12.48
2023-04-24T04:19:49.407Z,12.57
2023-04-24T04:22:16.056Z,11.35
2023-04-24T04:24:42.673Z,10.73
2023-04-24T04:27:11.834Z,12.80
2023-04-24T04:29:41.277Z,11.25
2023-04-24T04:32:10.429Z,10.20
2023-04-24T04:34:38.593Z,9.25
2023-04-24T04:37:05.272Z,8.15
2023-04-24T04:39:32.067Z,10.35
2023-04-24T04:41:59.460Z,10.13
2023-04-24T04:44:27.234Z,10.50
2023-04-24T04:46:57.734Z,9.48
2023-04-24T04:49:29.288Z,11.07
2023-04-24T04:51:56.349Z,7.05
2023-04-24T04:54:23.019Z,11.07
2023-04-24T04:56:51.649Z,7.13
2023-04-24T04:59:18.416Z,9.57
2023-04-24T05:01:45.102Z,8.40
2023-04-24T05:04:12.044Z,9.25
2023-04-24T05:06:48.116Z,6.93
2023-04-24T05:09:14.757Z,9.25
2023-04-24T05:11:41.407Z,8.88
2023-04-24T05:14:13.360Z,7.43
2023-04-24T05:16:40.985Z,8.10
2023-04-24T05:19:07.773Z,8.07
2023-04-24T05:21:34.437Z,8.57
2023-04-24T05:24:03.504Z,9.18
2023-04-24T05:26:30.145Z,11.80
2023-04-24T05:28:59.178Z,12.45
2023-04-24T05:31:26.491Z,10.32
2023-04-24T05:33:53.197Z,10.25
2023-04-24T05:36:19.845Z,9.77
2023-04-24T05:38:48.974Z,10.10
2023-04-24T05:41:16.059Z,10.85
2023-04-24T05:43:42.752Z,10.35
2023-04-24T05:46:09.399Z,10.07
2023-04-24T05:48:36.243Z,9.25
2023-04-24T05:51:07.812Z,11.35
2023-04-24T05:53:34.457Z,9.77
2023-04-24T05:56:03.610Z,10.68
2023-04-24T05:58:30.621Z,8.35
2023-04-24T06:00:58.403Z,6.88
2023-04-24T06:03:25.677Z,10.30
2023-04-24T06:05:57.055Z,7.78
2023-04-24T06:08:23.725Z,7.50
2023-04-24T06:10:50.777Z,6.82
2023-04-24T06:13:19.872Z,5.47
2023-04-24T06:15:48.716Z,6.30
2023-04-24T06:18:16.132Z,6.63
2023-04-24T06:20:43.003Z,6.40
2023-04-24T06:23:12.058Z,5.72
2023-04-24T06:25:39.155Z,6.53
2023-04-24T06:28:06.139Z,5.18
2023-04-24T06:30:33.025Z,4.85
2023-04-24T06:33:12.955Z,4.50
2023-04-24T06:38:16.990Z,5.80
2023-04-24T06:40:43.983Z,4.63
2023-04-24T06:43:16.017Z,7.00
2023-04-24T06:45:44.221Z,4.90
2023-04-24T06:48:13.681Z,4.70
2023-04-24T06:50:42.510Z,4.00
2023-04-24T06:53:11.956Z,6.80
2023-04-24T06:55:38.993Z,7.25
2023-04-24T06:58:07.004Z,6.78
2023-04-24T07:00:33.781Z,5.03
2023-04-24T07:03:00.523Z,4.72
2023-04-24T07:05:27.398Z,6.03
2023-04-24T07:07:54.157Z,5.57
2023-04-24T07:10:23.240Z,3.88
2023-04-24T07:12:52.512Z,6.32
2023-04-24T07:15:19.157Z,5.93
2023-04-24T07:17:47.992Z,4.85
2023-04-24T07:20:15.722Z,5.70
2023-04-24T07:22:44.910Z,8.43
2023-04-24T07:25:11.770Z,4.88
2023-04-24T07:27:38.594Z,4.50
2023-04-24T07:30:05.978Z,4.97
2023-04-24T07:32:32.747Z,4.85
2023-04-24T07:35:04.157Z,5.13
2023-04-24T07:37:33.070Z,3.83
2023-04-24T07:39:59.699Z,4.38
2023-04-24T07:42:28.892Z,3.17
2023-04-24T07:44:57.754Z,7.28
2023-04-24T07:47:24.425Z,3.67
2023-04-24T07:49:56.088Z,4.57
2023-04-24T07:52:22.767Z,5.03
2023-04-24T07:54:50.656Z,3.53
2023-04-24T07:57:17.664Z,3.38
2023-04-24T07:59:44.459Z,4.53
2023-04-24T08:02:11.928Z,4.40
2023-04-24T08:04:41.354Z,0.85
2023-04-24T08:07:10.506Z,0.50
2023-04-24T08:09:37.171Z,0.60
2023-04-24T08:12:03.987Z,0.63
2023-04-24T08:14:30.766Z,0.60
2023-04-24T08:16:57.535Z,0.50
2023-04-24T08:19:26.673Z,4.25
2023-04-24T08:21:53.352Z,4.55
2023-04-24T08:24:20.081Z,0.60
2023-04-24T08:26:46.859Z,0.50
2023-04-24T08:29:16.200Z,0.68
2023-04-24T08:31:48.006Z,0.60
2023-04-24T08:34:14.679Z,0.68
2023-04-24T08:36:47.779Z,0.75
2023-04-24T08:39:18.343Z,1.30
2023-04-24T08:41:46.366Z,0.80
2023-04-24T08:44:18.839Z,0.50
2023-04-24T08:46:46.956Z,0.65
2023-04-24T08:49:17.227Z,0.57
2023-04-24T08:51:48.530Z,0.93
2023-04-24T08:54:15.249Z,1.40
2023-04-24T08:56:45.739Z,0.70
2023-04-24T08:59:13.362Z,1.45
2023-04-24T09:01:41.545Z,1.23
2023-04-24T09:04:13.933Z,0.82
2023-04-24T09:06:41.372Z,0.80
2023-04-24T09:09:12.505Z,0.80
2023-04-24T09:11:39.477Z,0.60
2023-04-24T09:14:06.698Z,0.82
2023-04-24T09:16:36.539Z,0.65
2023-04-24T09:19:04.123Z,1.35
2023-04-24T09:21:37.684Z,8.57
2023-04-24T09:24:18.619Z,0.70
2023-04-24T09:26:45.971Z,1.30
2023-04-24T09:29:17.666Z,15.02
2023-04-24T09:31:45.180Z,1.75
2023-04-24T09:34:12.329Z,0.60
2023-04-24T09:36:39.920Z,1.05
2023-04-24T09:39:12.078Z,1.80
2023-04-24T09:41:49.784Z,6.60
2023-04-24T09:44:17.321Z,1.08
2023-04-24T09:46:46.464Z,0.98
2023-04-24T09:49:23.733Z,1.23
2023-04-24T09:51:52.945Z,1.20
2023-04-24T09:54:25.690Z,18.13
2023-04-24T09:56:55.651Z,17.95
2023-04-24T09:59:23.052Z,17.40
2023-04-24T10:01:50.456Z,16.80
2023-04-24T10:04:20.413Z,21.20
2023-04-24T10:06:49.717Z,17.85
2023-04-24T10:09:17.885Z,16.10
2023-04-24T10:11:46.406Z,14.65
2023-04-24T10:14:18.001Z,16.30
2023-04-24T10:16:50.730Z,15.60
2023-04-24T10:19:21.387Z,16.58
2023-04-24T10:21:48.308Z,17.88
2023-04-24T10:24:21.377Z,15.43
2023-04-24T10:26:51.366Z,12.35
2023-04-24T10:29:23.295Z,12.82
2023-04-24T10:31:50.008Z,13.57
2023-04-24T10:34:23.934Z,14.70
2023-04-24T10:36:56.510Z,12.27
2023-04-24T10:39:28.187Z,12.65
2023-04-24T10:41:58.249Z,13.57
2023-04-24T10:44:27.740Z,15.73
2023-04-24T10:46:56.351Z,9.25
2023-04-24T10:49:30.788Z,10.65
2023-04-24T10:52:07.485Z,13.43
2023-04-24T10:54:41.032Z,15.07
2023-04-24T10:57:23.299Z,14.25
2023-04-24T11:00:12.559Z,12.10
2023-04-24T11:02:41.298Z,11.35
2023-04-24T11:05:08.669Z,16.42
2023-04-24T11:08:13.551Z,14.43
2023-04-24T11:10:47.736Z,13.68
2023-04-24T11:13:24.707Z,13.55
2023-04-24T11:16:26.995Z,14.10
2023-04-24T11:19:05.709Z,12.30
2023-04-24T11:21:39.845Z,15.82
2023-04-24T11:24:29.872Z,12.65
2023-04-24T11:27:00.814Z,10.23
2023-04-24T11:29:45.864Z,17.30
2023-04-24T11:32:22.194Z,15.25
2023-04-24T11:34:59.283Z,14.85
2023-04-24T11:37:34.708Z,12.07
2023-04-24T11:40:02.371Z,13.80
2023-04-24T11:42:35.947Z,17.10
2023-04-24T11:45:05.578Z,15.05
2023-04-24T11:47:35.540Z,17.45
2023-04-24T11:50:07.105Z,13.57
2023-04-24T11:52:37.675Z,17.20
2023-04-24T11:55:11.170Z,15.32
2023-04-24T11:57:38.088Z,12.77
2023-04-24T12:00:09.384Z,10.65
2023-04-24T12:02:40.144Z,15.10
2023-04-24T12:05:09.911Z,14.30
2023-04-24T12:07:43.748Z,14.75
2023-04-24T12:10:10.715Z,18.65
2023-04-24T12:12:39.712Z,15.13
2023-04-24T12:15:10.267Z,11.32
2023-04-24T12:17:40.185Z,14.82
2023-04-24T12:20:12.909Z,14.38
2023-04-24T12:22:48.402Z,16.00
2023-04-24T12:25:17.176Z,15.80
2023-04-24T12:27:47.428Z,10.32
2023-04-24T12:30:16.461Z,12.55
2023-04-24T12:32:45.867Z,11.52
2023-04-24T12:35:19.885Z,9.68
2023-04-24T12:37:51.652Z,11.40
2023-04-24T12:40:22.320Z,12.23
2023-04-24T12:42:50.983Z,10.00
2023-04-24T12:45:19.051Z,10.18
2023-04-24T12:47:47.080Z,11.05
2023-04-24T12:50:16.768Z,12.60
2023-04-24T12:52:44.347Z,9.90
2023-04-24T12:55:13.601Z,11.63
2023-04-24T12:57:42.792Z,11.57
2023-04-24T13:00:10.101Z,14.50
2023-04-24T13:02:37.472Z,10.60
2023-04-24T13:05:04.677Z,8.75
2023-04-24T13:07:33.479Z,10.25
2023-04-24T13:10:00.259Z,8.43
2023-04-24T13:12:27.562Z,9.57
2023-04-24T13:14:56.989Z,8.98
2023-04-24T13:17:23.714Z,8.80
2023-04-24T13:19:52.395Z,7.18
2023-04-24T13:22:22.448Z,9.10
2023-04-24T13:24:51.837Z,9.07
2023-04-24T13:27:19.101Z,9.75
2023-04-24T13:29:49.402Z,6.85
2023-04-24T13:32:18.638Z,5.90
2023-04-24T13:34:45.540Z,7.68
2023-04-24T13:37:14.411Z,6.28
2023-04-24T13:39:42.358Z,5.95
2023-04-24T13:42:09.642Z,8.77
2023-04-24T13:44:36.346Z,10.80
2023-04-24T13:47:03.561Z,7.70
2023-04-24T13:49:32.529Z,10.02
2023-04-24T13:51:59.216Z,9.25
2023-04-24T13:54:27.019Z,6.95
2023-04-24T13:56:54.123Z,5.97
2023-04-24T13:59:24.024Z,6.13
2023-04-24T14:01:50.981Z,7.32
2023-04-24T14:04:17.997Z,7.68
2023-04-24T14:06:45.334Z,5.38
2023-04-24T14:09:12.000Z,6.75
2023-04-24T14:11:38.898Z,7.43
2023-04-24T14:14:06.281Z,4.82
2023-04-24T14:16:40.218Z,7.88
2023-04-24T14:19:07.295Z,6.28
2023-04-24T14:21:34.513Z,7.03
2023-04-24T14:24:03.577Z,7.82
2023-04-24T14:26:30.309Z,7.90
2023-04-24T14:29:07.572Z,7.15
2023-04-24T14:31:40.791Z,5.57
2023-04-24T14:34:07.523Z,6.68
2023-04-24T14:36:39.517Z,8.82
2023-04-24T14:39:07.889Z,6.90
2023-04-24T14:41:38.051Z,6.85
2023-04-24T14:44:10.497Z,7.30
2023-04-24T14:46:37.304Z,7.63
2023-04-24T14:49:03.977Z,9.88
2023-04-24T14:51:33.030Z,5.10
2023-04-24T14:54:01.966Z,7.00
2023-04-24T14:56:30.736Z,8.02
2023-04-24T14:58:59.636Z,4.75
2023-04-24T15:01:28.539Z,4.90
2023-04-24T15:03:55.366Z,7.13
2023-04-24T15:06:22.199Z,11.32
2023-04-24T15:08:51.402Z,6.50
2023-04-24T15:11:18.677Z,5.55
2023-04-24T15:13:47.844Z,7.35
2023-04-24T15:16:14.976Z,6.88
2023-04-24T15:18:43.889Z,5.57
2023-04-24T15:21:15.318Z,6.28
2023-04-24T15:23:44.447Z,4.47
2023-04-24T15:26:13.890Z,8.00
2023-04-24T15:28:40.677Z,7.10
2023-04-24T15:31:07.389Z,7.57
2023-04-24T15:33:34.006Z,8.40
2023-04-24T15:36:00.663Z,8.90
2023-04-24T15:38:29.604Z,4.78
2023-04-24T15:40:58.402Z,5.07
2023-04-24T15:43:30.115Z,4.53
2023-04-24T15:45:57.145Z,5.43
2023-04-24T15:48:24.076Z,6.30
2023-04-24T15:50:50.721Z,6.53
2023-04-24T15:53:22.359Z,7.00
2023-04-24T15:55:50.443Z,6.63
2023-04-24T15:58:17.957Z,7.93
2023-04-24T16:00:44.752Z,6.78
2023-04-24T16:03:16.584Z,5.35
2023-04-24T16:05:45.788Z,6.70
2023-04-24T16:08:15.427Z,6.75
2023-04-24T16:10:46.854Z,5.55
2023-04-24T16:13:14.631Z,6.47
2023-04-24T16:15:43.727Z,5.50
2023-04-24T16:18:10.462Z,5.18
2023-04-24T16:20:37.314Z,6.05
2023-04-24T16:23:03.948Z,5.32
2023-04-24T16:25:32.738Z,6.70
2023-04-24T16:27:59.667Z,6.57
2023-04-24T16:30:26.697Z,8.05
2023-04-24T16:32:53.542Z,4.53
2023-04-24T16:35:20.246Z,8.10
2023-04-24T16:37:46.957Z,6.07
2023-04-24T16:40:13.907Z,7.68
2023-04-24T16:42:40.688Z,4.38
2023-04-24T16:45:10.724Z,5.43
2023-04-24T16:47:37.526Z,6.88
2023-04-24T16:50:04.581Z,6.40
2023-04-24T16:52:31.266Z,5.95
2023-04-24T16:55:00.470Z,4.80
2023-04-24T16:57:29.703Z,2.80
2023-04-24T17:00:03.912Z,5.07
2023-04-24T17:02:31.573Z,6.03
2023-04-24T17:04:58.279Z,5.13
2023-04-24T17:07:25.256Z,6.80
2023-04-24T17:09:52.223Z,4.32
2023-04-24T17:12:18.830Z,5.18
2023-04-24T17:14:45.533Z,4.20
2023-04-24T17:17:12.200Z,5.05
2023-04-24T17:19:41.414Z,3.17
2023-04-24T17:22:08.056Z,4.13
2023-04-24T17:24:36.924Z,3.78
2023-04-24T17:27:14.917Z,6.57
2023-04-24T17:29:42.330Z,5.22
2023-04-24T17:32:11.333Z,4.90
2023-04-24T17:34:38.106Z,5.90
2023-04-24T17:37:04.811Z,4.07
2023-04-24T17:39:31.534Z,3.67
2023-04-24T17:41:58.247Z,5.07
2023-04-24T17:44:24.952Z,6.63
2023-04-24T17:46:54.115Z,5.28
2023-04-24T17:49:20.790Z,5.57
2023-04-24T17:51:50.003Z,6.07
2023-04-24T17:54:21.429Z,5.85
2023-04-24T17:56:48.641Z,4.95
2023-04-24T17:59:17.781Z,4.05
2023-04-24T18:01:46.660Z,3.47
2023-04-24T18:04:16.183Z,5.47
2023-04-24T18:06:45.548Z,5.68
2023-04-24T18:09:15.791Z,5.10
2023-04-24T18:11:42.806Z,6.18
2023-04-24T18:14:11.728Z,7.90
2023-04-24T18:16:38.371Z,4.78
2023-04-24T18:19:07.541Z,5.97
2023-04-24T18:21:34.601Z,5.63
2023-04-24T18:24:01.255Z,8.32
2023-04-24T18:26:31.140Z,5.80
2023-04-24T18:28:57.788Z,8.63
2023-04-24T18:31:27.000Z,5.80
2023-04-24T18:33:55.145Z,7.35
2023-04-24T18:36:21.823Z,5.75
2023-04-24T18:38:50.796Z,5.30
2023-04-24T18:41:19.852Z,4.93
2023-04-24T18:43:47.699Z,7.57
2023-04-24T18:46:16.591Z,6.35
2023-04-24T18:48:45.525Z,8.98
2023-04-24T18:51:12.188Z,6.25
2023-04-24T18:53:43.227Z,6.85
2023-04-24T18:56:09.866Z,7.75
2023-04-24T18:58:38.936Z,8.15
2023-04-24T19:01:08.418Z,6.68
2023-04-24T19:03:37.874Z,5.10
2023-04-24T19:06:04.810Z,4.65
2023-04-24T19:08:31.473Z,7.90
2023-04-24T19:10:58.539Z,7.63
2023-04-24T19:13:27.968Z,7.22
2023-04-24T19:15:54.630Z,8.63
2023-04-24T19:18:21.318Z,9.73
2023-04-24T19:20:55.231Z,11.20
2023-04-24T19:23:22.183Z,4.97
2023-04-24T19:25:48.946Z,5.28
2023-04-24T19:28:15.615Z,6.38
2023-04-24T19:30:43.566Z,8.50
2023-04-24T19:33:10.255Z,7.63
2023-04-24T19:35:38.455Z,6.40
2023-04-24T19:38:05.606Z,4.97
2023-04-24T19:40:35.374Z,7.63
2023-04-24T19:43:04.219Z,7.63
2023-04-24T19:45:30.875Z,7.03
2023-04-24T19:47:57.688Z,6.47
2023-04-24T19:50:26.756Z,8.18
2023-04-24T19:52:53.585Z,6.55
2023-04-24T19:55:20.631Z,6.20
2023-04-24T19:57:47.258Z,6.93
2023-04-24T20:00:19.299Z,7.18
2023-04-24T20:02:46.209Z,7.10
2023-04-24T20:05:13.268Z,5.28
2023-04-24T20:07:43.004Z,7.68
2023-04-24T20:10:10.177Z,5.88
2023-04-24T20:12:36.869Z,5.00
2023-04-24T20:15:07.244Z,7.13
2023-04-24T20:17:33.999Z,6.20
2023-04-24T20:20:02.961Z,7.95
2023-04-24T20:22:35.301Z,7.07
2023-04-24T20:25:03.109Z,7.82
2023-04-24T20:27:30.216Z,7.43
2023-04-24T20:29:59.185Z,7.82
2023-04-24T20:32:31.451Z,5.85
2023-04-24T20:34:58.561Z,7.13
2023-04-24T20:37:25.281Z,7.65
2023-04-24T20:39:54.064Z,8.60
2023-04-24T20:42:20.882Z,6.53
2023-04-24T20:44:48.683Z,7.63
2023-04-24T20:47:20.081Z,6.30
2023-04-24T20:49:52.300Z,8.73
2023-04-24T20:52:21.520Z,8.30
2023-04-24T20:54:50.394Z,6.45
2023-04-24T20:57:19.809Z,7.28
2023-04-24T20:59:46.660Z,8.57
2023-04-24T21:02:13.375Z,8.82
2023-04-24T21:04:42.520Z,8.43
2023-04-24T21:07:12.880Z,10.57
2023-04-24T21:09:41.720Z,8.32
2023-04-24T21:12:08.418Z,9.07
2023-04-24T21:14:35.220Z,7.13
2023-04-24T21:17:04.168Z,8.88
2023-04-24T21:19:30.839Z,11.82
2023-04-24T21:21:57.550Z,7.03
2023-04-24T21:24:26.728Z,11.30
2023-04-24T21:26:53.445Z,9.52
2023-04-24T21:29:20.913Z,8.15
2023-04-24T21:31:49.714Z,8.93
2023-04-24T21:34:20.783Z,9.27
2023-04-24T21:36:47.775Z,9.15
2023-04-24T21:39:16.638Z,9.48
2023-04-24T21:41:45.715Z,8.63
2023-04-24T21:44:17.060Z,8.20
2023-04-24T21:46:48.413Z,6.68
2023-04-24T21:49:15.046Z,11.07
2023-04-24T21:51:41.783Z,8.85
2023-04-24T21:54:10.569Z,10.93
2023-04-24T21:56:37.324Z,7.38
2023-04-24T21:59:04.000Z,10.50
2023-04-24T22:01:33.749Z,9.95
2023-04-24T22:04:02.904Z,10.25
2023-04-24T22:06:33.789Z,8.68
2023-04-24T22:09:01.189Z,9.05
2023-04-24T22:11:31.284Z,8.48
2023-04-24T22:14:00.577Z,9.85
2023-04-24T22:16:29.062Z,10.07
2023-04-24T22:18:57.655Z,13.32
2023-04-24T22:21:24.391Z,11.10
2023-04-24T22:23:51.790Z,11.70
2023-04-24T22:26:20.959Z,8.82
2023-04-24T22:28:48.397Z,9.73
2023-04-24T22:31:17.746Z,15.23
2023-04-24T22:33:46.975Z,10.05
2023-04-24T22:36:16.615Z,9.70
2023-04-24T22:38:43.483Z,9.32
2023-04-24T22:41:10.225Z,10.18
2023-04-24T22:43:41.549Z,10.20
2023-04-24T22:46:08.206Z,12.52
2023-04-24T22:48:34.964Z,9.35
2023-04-24T22:51:02.502Z,12.75
2023-04-24T22:53:31.401Z,13.48
2023-04-24T22:55:58.138Z,12.20
2023-04-24T22:58:27.334Z,11.07
2023-04-24T23:00:56.421Z,10.55
2023-04-24T23:03:23.695Z,11.73
2023-04-24T23:05:50.694Z,17.00
2023-04-24T23:08:22.010Z,9.05
2023-04-24T23:10:48.754Z,10.45
2023-04-24T23:13:15.545Z,12.05
2023-04-24T23:15:49.555Z,11.80
2023-04-24T23:18:16.208Z,14.10
2023-04-24T23:20:42.889Z,10.40
2023-04-24T23:23:11.711Z,12.43
2023-04-24T23:25:38.965Z,10.88
2023-04-24T23:28:05.575Z,14.90
2023-04-24T23:30:32.296Z,15.45
2023-04-24T23:32:59.000Z,13.85
2023-04-24T23:35:26.917Z,10.85
2023-04-24T23:37:54.367Z,11.73
2023-04-24T23:40:21.118Z,16.13
2023-04-24T23:42:51.576Z,15.35
2023-04-24T23:45:26.730Z,11.95
2023-04-24T23:47:56.601Z,15.60
2023-04-24T23:50:25.991Z,10.60
2023-04-24T23:52:52.670Z,14.40
2023-04-24T23:55:22.107Z,12.95
2023-04-24T23:57:50.885Z,15.27
